Fayetteville Regional Grannis Field
KFAY : now visible

Airfield :











YOU CAN JOIN US ON...

 
LOGIN :

Register | Disclaimer

   EN    FR    IT 

 









Legend :    VFR   Marginal VFR   IFR   Intensive IFR   Very Intensive IFR
Visi :
Ceiling :
>= 8 km
>= 3000ft
5 to 8 km
1000 to 3000 ft
1500m to 5 km
500 to 1000 ft
800 to 1500m
200 to 500 ft
< 800m
< 200 ft
Symbols :   Thunderstorms  Fog  Heavy snow  Heavy precipitations  Wind > 20 kt






- Airport Elevation : 189 ft
- IATA code : FAY


KFAY - Fayetteville Regional Grannis Field

CURRENT METAR :
  • 261711Z 00000KT 10SM FEW024 19/13 A2983 RMK AO2 T01890133

EXPIRED METARs :
  • 261653Z 25003KT 10SM BKN025 18/13 A2984 RMK AO2 SLP100 T01830133
  • 261642Z 20003KT 10SM BKN025 18/13 A2984 RMK AO2 T01830128
  • 261607Z 00000KT 10SM FEW009 17/14 A2986 RMK AO2 T01720139
  • 261553Z 10003KT 10SM BKN008 17/14 A2986 RMK AO2 SLP105 T01720139
  • 261453Z 00000KT 7SM OVC005 16/14 A2986 RMK AO2 SLP107 T01560139 50006

TAF KFAY
Valid from the 26 at 16:00 until the 27 at 12:00 UTC


261608Z 2616/2712 VRB05KT P6SM SCT008 BKN015
TEMPO 2616/2617 5SM BR BKN006
FM261700 19006KT P6SM BKN050
FM262100 22012G22KT P6SM BKN070
FM270000 25012G22KT P6SM VCSH BKN050
TEMPO 2700/2704 3SM -RA OVC025
FM270500 26013G23KT P6SM BKN250



MET'MAP, your aeronautical weather chart ! - Copyright ORBIFLY December 2007 - Disclaimer

ORBIFLY MET'MAP TEAM :

Programming & Development : Alexandra Zaïnal
Concept & original design : Baudouin d'Aumeries
Assistance for programming : Marc-Olivier Méhu
Technical & hardware support : Manuel Goepfert

Contact : metmap@orbifly.com




SOURCES & CREDITS :

   NOAA       Earth
Advisory